Flight Track Log - Related Links

Times and Time Zones

All times are in EDT time to prevent confusion due to time zone crossing. See the TCF6003 flight status page for this flight to view local times or setup timezone preferences in your user account.

Time Position Orientation Groundspeed Altitude Reporting Facility
EDT Latitude Longitude Course Direction KTS MPH feet Rate Location/Type
Sat 06:11:14 PM 40.8000 -73.8833 313° West 152 175 1,800  Level New York TRACON
Sat 06:12:14 PM 40.8667 -73.9000 349° North 243 280 5,300 3,850 Climbing New York TRACON
Sat 06:13:14 PM 40.9333 -73.9167 349° North 256 295 9,500 2,857 Climbing New York TRACON
Sat 06:14:00 PM 41.0012 -74.2254 306° West  Level FlightAware Approximate
Sat 06:15:00 PM 41.0579 -74.3184 313° West  Level FlightAware Approximate
Sat 06:15:23 PM 41.0544 -74.0922 312° West 309 356 14,300  Level New York Center
Sat 06:16:00 PM 41.1194 -74.4062 313° West  Level FlightAware Approximate
Sat 06:16:24 PM 41.1247 -74.1811 316° Northwest 334 384 15,000  Level New York Center
Sat 06:17:24 PM 41.1892 -74.2617 317° Northwest 349 402 15,200 1,271 Climbing New York Center
Sat 06:18:22 PM 41.2569 -74.3644 311° West 349 402 17,500 2,390 Climbing New York Center
Sat 06:19:22 PM 41.2892 -74.4628 294° West 341 392 19,900 2,083 Climbing New York Center
Sat 06:20:23 PM 41.3328 -74.5978 293° West 346 398 21,700 1,041 Climbing New York Center
Sat 06:21:23 PM 41.3725 -74.7189 294° West 352 405 22,000 150 Climbing New York Center
Sat 06:22:23 PM 41.4103 -74.8372 293° West 357 411 22,000  Level New York Center
Sat 06:23:23 PM 41.4497 -74.9586 293° West 357 411 22,000  Level New York Center
Sat 06:24:24 PM 41.4892 -75.0803 293° West 357 411 22,000  Level New York Center
Sat 06:25:24 PM 41.5286 -75.1964 294° West 357 411 22,000  Level New York Center
Sat 06:26:22 PM 41.5678 -75.3181 293° West 357 411 22,000  Level New York Center
Sat 06:27:23 PM 41.6067 -75.4400 293° West 357 411 22,000  Level New York Center
Sat 06:28:23 PM 41.6436 -75.5592 293° West 357 411 22,000  Level New York Center
Sat 06:29:22 PM 41.6803 -75.6811 292° West 357 411 22,000  Level New York Center
Sat 06:30:24 PM 41.7192 -75.7953 295° West 352 405 22,000  Level New York Center
Sat 06:31:24 PM 41.7556 -75.9175 292° West 352 405 22,000  Level New York Center
Sat 06:32:24 PM 41.7919 -76.0372 292° West 352 405 22,000  Level New York Center
Sat 06:33:22 PM 41.8283 -76.1569 292° West 352 405 22,000  Level New York Center
Sat 06:34:22 PM 41.8644 -76.2769 292° West 352 405 22,000  Level New York Center
Sat 06:36:21 PM 41.9356 -76.5047 293° West 353 406 22,000  Level Cleveland Center
Sat 06:37:21 PM 41.9731 -76.6253 293° West 353 406 22,000  Level Cleveland Center
Sat 06:38:21 PM 42.0106 -76.7458 293° West 347 399 22,000  Level Cleveland Center
Sat 06:39:21 PM 42.0458 -76.8639 292° West 347 399 22,000  Level Cleveland Center
Sat 06:40:21 PM 42.0808 -76.9822 292° West 347 399 22,000  Level Cleveland Center
Sat 06:41:21 PM 42.1200 -77.1006 294° West 347 399 22,000  Level Cleveland Center
Sat 06:42:21 PM 42.1589 -77.2189 294° West 347 399 22,000  Level Cleveland Center
Sat 06:43:21 PM 42.1978 -77.3372 294° West 347 399 22,000 -150 Level Cleveland Center
Sat 06:44:21 PM 42.2364 -77.4561 294° West 347 399 21,700 -850 Descending Cleveland Center
Sat 06:45:21 PM 42.2750 -77.5719 294° West 347 399 20,300 -1,450 Descending Cleveland Center
Sat 06:46:21 PM 42.3133 -77.6881 294° West 347 399 18,800 -1,300 Descending Cleveland Center
Sat 06:47:21 PM 42.3475 -77.7989 293° West 340 391 17,700 -1,400 Descending Cleveland Center
Sat 06:48:21 PM 42.3833 -77.9097 294° West 330 380 16,000 -1,550 Descending Cleveland Center
Sat 06:49:21 PM 42.4192 -78.0208 294° West 330 380 14,600 -1,400 Descending Cleveland Center
Sat 06:50:21 PM 42.4550 -78.1319 294° West 330 380 13,200 -1,600 Descending Cleveland Center
Sat 06:51:21 PM 42.5192 -78.2028 321° Northwest 307 353 11,400 -1,600 Descending Cleveland Center
Sat 06:52:21 PM 42.5808 -78.2681 322° Northwest 282 325 10,000 -1,450 Descending Cleveland Center
Sat 06:53:21 PM 42.6361 -78.3253 323° Northwest 264 304 8,500 -1,400 Descending Cleveland Center
Sat 06:54:21 PM 42.6914 -78.3800 324° Northwest 253 291 7,200 -1,400 Descending Cleveland Center
Sat 06:55:21 PM 42.7467 -78.4431 320° Northwest 258 297 5,700 -1,400 Descending Cleveland Center
Sat 06:56:21 PM 42.7978 -78.4978 322° Northwest 244 281 4,400 -1,100 Descending Cleveland Center
Sat 06:57:21 PM 42.8425 -78.5558 316° Northwest 234 269 3,500 -757 Descending Cleveland Center
Sat 06:59:47 PM 42.9000 -78.6667 305° West 113 130 1,800 -670 Descending Buffalo TRACON
Sat 07:00:47 PM 42.9167 -78.7000 304° West 114 131 1,200 -600 Descending Buffalo TRACON

Login

Don't have an account? Register now (free) for customized features, flight alerts, and more!